createdAt,value
2023-04-29T00:02:32.107Z,70.24
2023-04-29T00:07:36.554Z,71.18
2023-04-29T00:12:45.309Z,71.71
2023-04-29T00:17:48.626Z,71.98
2023-04-29T00:22:51.698Z,72.38
2023-04-29T00:27:54.721Z,72.47
2023-04-29T00:32:57.803Z,72.81
2023-04-29T00:38:00.773Z,73.31
2023-04-29T00:43:04.003Z,73.89
2023-04-29T00:48:10.345Z,73.93
2023-04-29T00:53:14.957Z,73.65
2023-04-29T00:58:20.890Z,73.97
2023-04-29T01:03:24.336Z,74.39
2023-04-29T01:08:44.341Z,74.47
2023-04-29T01:13:54.597Z,73.98
2023-04-29T01:19:18.205Z,73.94
2023-04-29T01:24:21.807Z,73.99
2023-04-29T01:29:56.508Z,73.65
2023-04-29T01:35:31.556Z,73.44
2023-04-29T01:40:43.861Z,73.17
2023-04-29T01:45:46.954Z,73.00
2023-04-29T01:50:50.337Z,72.92
2023-04-29T01:55:53.584Z,72.85
2023-04-29T02:00:57.157Z,72.55
2023-04-29T02:06:00.447Z,72.04
2023-04-29T02:11:03.483Z,72.10
2023-04-29T02:16:11.504Z,72.89
2023-04-29T02:21:14.457Z,72.35
2023-04-29T02:26:17.575Z,71.35
2023-04-29T02:31:20.607Z,70.60
2023-04-29T02:36:24.753Z,70.02
2023-04-29T02:41:30.931Z,69.39
2023-04-29T02:46:36.134Z,68.86
2023-04-29T02:51:39.144Z,68.63
2023-04-29T02:56:42.939Z,68.32
2023-04-29T03:01:46.404Z,68.28
2023-04-29T03:06:49.859Z,68.18
2023-04-29T03:11:53.406Z,68.12
2023-04-29T03:16:56.720Z,68.11
2023-04-29T03:21:59.758Z,68.16
2023-04-29T03:27:02.884Z,68.19
2023-04-29T03:32:05.959Z,68.31
2023-04-29T03:37:09.101Z,68.43
2023-04-29T03:42:12.446Z,68.44
2023-04-29T03:47:15.442Z,68.47
2023-04-29T03:52:18.546Z,68.39
2023-04-29T03:57:21.732Z,68.33
2023-04-29T04:02:25.070Z,68.21
2023-04-29T04:07:28.382Z,68.13
2023-04-29T04:12:31.424Z,67.63
2023-04-29T04:17:34.527Z,67.70
2023-04-29T04:22:38.278Z,67.61
2023-04-29T04:27:41.830Z,67.56
2023-04-29T04:32:45.554Z,67.26
2023-04-29T04:37:53.521Z,67.14
2023-04-29T04:42:56.629Z,67.14
2023-04-29T04:47:59.767Z,66.88
2023-04-29T04:53:05.617Z,66.61
2023-04-29T04:58:08.545Z,66.43
2023-04-29T05:03:11.688Z,66.33
2023-04-29T05:08:14.842Z,66.08
2023-04-29T05:13:18.616Z,66.16
2023-04-29T05:18:24.741Z,66.05
2023-04-29T05:23:28.079Z,65.82
2023-04-29T05:28:30.949Z,65.78
2023-04-29T05:33:33.840Z,64.89
2023-04-29T05:38:37.002Z,64.08
2023-04-29T05:43:39.953Z,63.87
2023-04-29T05:48:43.526Z,63.07
2023-04-29T05:53:46.523Z,62.83
2023-04-29T05:58:52.332Z,62.59
2023-04-29T06:03:55.490Z,61.12
2023-04-29T06:09:01.057Z,59.78
2023-04-29T06:14:06.049Z,59.83
2023-04-29T06:19:09.230Z,59.84
2023-04-29T06:24:12.420Z,59.84
2023-04-29T06:29:16.256Z,59.67
2023-04-29T06:34:19.662Z,58.98
2023-04-29T06:39:22.539Z,57.85
2023-04-29T06:44:25.969Z,58.18
2023-04-29T06:49:29.029Z,57.83
2023-04-29T06:54:32.046Z,57.22
2023-04-29T06:59:35.035Z,56.17
2023-04-29T07:04:38.116Z,55.55
2023-04-29T07:09:41.111Z,55.60
2023-04-29T07:14:44.168Z,55.11
2023-04-29T07:19:47.087Z,54.44
2023-04-29T07:24:55.536Z,54.29
2023-04-29T07:30:01.357Z,54.51
2023-04-29T07:35:04.625Z,54.29
2023-04-29T07:40:08.418Z,54.28
2023-04-29T07:45:11.809Z,53.95
2023-04-29T07:50:14.886Z,52.87
2023-04-29T07:55:17.859Z,52.24
2023-04-29T08:00:20.964Z,52.27
2023-04-29T08:05:24.875Z,52.14
2023-04-29T08:10:28.520Z,51.76
2023-04-29T08:15:31.352Z,50.92
2023-04-29T08:20:34.250Z,51.40
2023-04-29T08:25:37.365Z,51.69
2023-04-29T08:30:41.667Z,51.52
2023-04-29T08:35:44.956Z,51.65
2023-04-29T08:40:47.873Z,51.83
2023-04-29T08:45:51.213Z,51.44
2023-04-29T08:50:54.169Z,50.35
2023-04-29T08:56:08.735Z,50.35
2023-04-29T09:01:13.082Z,49.90
2023-04-29T09:06:16.828Z,49.83
2023-04-29T09:11:20.709Z,48.94
2023-04-29T09:16:23.555Z,48.47
2023-04-29T09:21:28.986Z,47.81
2023-04-29T09:26:44.341Z,46.58
2023-04-29T09:31:48.414Z,47.42
2023-04-29T09:36:57.111Z,46.95
2023-04-29T09:42:02.813Z,47.24
2023-04-29T09:47:08.848Z,47.26
2023-04-29T09:52:16.585Z,47.33
2023-04-29T09:57:19.650Z,46.62
2023-04-29T10:02:25.425Z,45.81
2023-04-29T10:07:29.450Z,45.12
2023-04-29T10:12:35.746Z,44.71
2023-04-29T10:17:54.754Z,43.77
2023-04-29T10:22:59.775Z,43.15
2023-04-29T10:28:04.667Z,42.22
2023-04-29T10:33:11.953Z,40.31
2023-04-29T10:38:29.189Z,39.54
2023-04-29T10:43:32.216Z,38.79
2023-04-29T10:48:35.079Z,38.99
2023-04-29T10:54:12.520Z,38.47
2023-04-29T10:59:20.938Z,38.28
2023-04-29T11:04:23.883Z,37.77
2023-04-29T11:09:29.459Z,37.62
2023-04-29T11:14:43.444Z,38.05
2023-04-29T11:19:51.222Z,38.38
2023-04-29T11:25:07.384Z,38.01
2023-04-29T11:30:11.274Z,38.24
2023-04-29T11:35:19.858Z,37.53
2023-04-29T11:40:22.978Z,37.40
2023-04-29T11:45:26.082Z,37.65
2023-04-29T11:50:32.529Z,37.66
2023-04-29T11:55:35.516Z,38.08
2023-04-29T12:00:38.856Z,37.90
2023-04-29T12:05:55.528Z,37.72
2023-04-29T12:10:59.752Z,37.38
2023-04-29T12:16:04.036Z,38.10
2023-04-29T12:21:07.417Z,37.88
2023-04-29T12:26:10.843Z,37.91
2023-04-29T12:31:16.929Z,37.85
2023-04-29T12:36:20.188Z,37.04
2023-04-29T12:41:42.245Z,36.49
2023-04-29T12:46:45.593Z,36.36
2023-04-29T12:51:48.640Z,36.63
2023-04-29T12:56:51.586Z,36.94
2023-04-29T13:01:54.590Z,36.74
2023-04-29T13:07:00.993Z,37.03
2023-04-29T13:12:04.357Z,37.13
2023-04-29T13:17:07.343Z,37.75
2023-04-29T13:22:10.312Z,38.03
2023-04-29T13:27:13.230Z,38.24
2023-04-29T13:32:18.466Z,38.55
2023-04-29T13:37:22.334Z,38.56
2023-04-29T13:42:27.161Z,38.76
2023-04-29T13:47:31.492Z,39.08
2023-04-29T14:08:01.573Z,39.36
2023-04-29T14:13:05.241Z,39.53
2023-04-29T14:18:09.618Z,39.69
2023-04-29T14:23:12.565Z,39.97
2023-04-29T14:28:15.636Z,40.23
2023-04-29T14:33:18.756Z,40.40
2023-04-29T14:38:21.812Z,40.61
2023-04-29T14:43:24.859Z,40.67
2023-04-29T14:48:28.784Z,40.72
2023-04-29T14:53:32.360Z,40.99
2023-04-29T14:58:35.432Z,41.07
2023-04-29T15:08:45.791Z,41.44
2023-04-29T15:13:49.005Z,41.74
2023-04-29T15:18:52.063Z,42.04
2023-04-29T15:23:55.759Z,42.37
2023-04-29T15:28:58.808Z,42.62
2023-04-29T15:34:02.012Z,42.94
2023-04-29T15:39:05.095Z,43.23
2023-04-29T15:44:08.222Z,43.46
2023-04-29T15:49:12.444Z,43.65
2023-04-29T15:54:15.439Z,43.79
2023-04-29T15:59:18.737Z,43.90
2023-04-29T16:04:22.173Z,44.08
2023-04-29T16:09:26.043Z,44.26
2023-04-29T16:14:30.122Z,44.49
2023-04-29T16:19:35.239Z,44.78
2023-04-29T16:24:40.016Z,45.49
2023-04-29T16:29:43.267Z,46.31
2023-04-29T16:34:46.209Z,47.29
2023-04-29T16:39:49.187Z,47.73
2023-04-29T16:44:52.176Z,48.99
2023-04-29T16:49:56.512Z,50.41
2023-04-29T16:55:01.595Z,51.53
2023-04-29T17:00:06.174Z,52.59
2023-04-29T17:05:11.116Z,55.19
2023-04-29T17:10:14.201Z,55.49
2023-04-29T17:15:17.437Z,56.67
2023-04-29T17:20:21.755Z,56.69
2023-04-29T17:25:24.875Z,57.74
2023-04-29T17:30:27.970Z,58.91
2023-04-29T17:35:35.048Z,59.48
2023-04-29T17:40:38.137Z,59.55
2023-04-29T17:45:41.543Z,59.67
2023-04-29T17:50:45.800Z,58.83
2023-04-29T17:55:48.982Z,60.37
2023-04-29T18:00:56.236Z,59.69
2023-04-29T18:05:59.610Z,59.67
2023-04-29T18:11:03.349Z,61.79
2023-04-29T18:16:08.985Z,60.36
2023-04-29T18:21:13.217Z,60.05
2023-04-29T18:26:17.475Z,62.28
2023-04-29T18:31:20.855Z,62.12
2023-04-29T18:36:24.094Z,63.00
2023-04-29T18:41:27.320Z,63.90
2023-04-29T18:46:30.694Z,63.92
2023-04-29T18:51:33.965Z,64.48
2023-04-29T18:56:40.114Z,63.70
2023-04-29T19:01:43.451Z,62.15
2023-04-29T19:06:46.650Z,61.69
2023-04-29T19:11:49.727Z,62.90
2023-04-29T19:16:54.893Z,64.09
2023-04-29T19:21:57.990Z,64.80
2023-04-29T19:27:00.898Z,63.01
2023-04-29T19:32:04.154Z,62.80
2023-04-29T19:37:07.183Z,64.50
2023-04-29T19:42:10.435Z,64.40
2023-04-29T19:47:13.403Z,65.85
2023-04-29T19:52:16.524Z,68.35
2023-04-29T19:57:19.460Z,68.75
2023-04-29T20:02:22.789Z,70.68
2023-04-29T20:07:25.915Z,70.59
2023-04-29T20:12:28.839Z,71.65
2023-04-29T20:17:32.223Z,71.07
2023-04-29T20:22:35.829Z,70.26
2023-04-29T20:27:38.802Z,71.53
2023-04-29T20:32:41.763Z,72.69
2023-04-29T20:37:46.113Z,73.65
2023-04-29T20:42:49.243Z,74.15
2023-04-29T20:47:52.942Z,74.76
2023-04-29T20:52:56.153Z,75.18
2023-04-29T20:57:59.026Z,76.02
2023-04-29T21:03:02.080Z,77.52
2023-04-29T21:08:06.105Z,77.86
2023-04-29T21:13:09.198Z,77.06
2023-04-29T21:18:12.727Z,76.93
2023-04-29T21:23:15.699Z,78.29
2023-04-29T21:28:18.843Z,77.46
2023-04-29T21:33:21.943Z,78.81
2023-04-29T21:38:25.001Z,79.42
2023-04-29T21:43:28.762Z,80.04
2023-04-29T21:48:32.518Z,80.14
2023-04-29T21:53:35.606Z,80.96
2023-04-29T21:58:38.571Z,80.36
2023-04-29T22:03:41.495Z,81.36
2023-04-29T22:08:44.389Z,85.48
2023-04-29T22:13:48.188Z,86.92
2023-04-29T22:18:51.659Z,86.71
2023-04-29T22:23:55.855Z,84.57
2023-04-29T22:28:58.700Z,85.11
2023-04-29T22:34:01.653Z,85.82
2023-04-29T22:39:04.701Z,87.06
2023-04-29T22:44:07.721Z,87.77
2023-04-29T22:49:10.697Z,88.40
2023-04-29T22:54:13.654Z,87.92
2023-04-29T22:59:16.821Z,86.46
2023-04-29T23:04:20.359Z,85.79
2023-04-29T23:09:23.341Z,85.49
2023-04-29T23:14:26.236Z,85.51
2023-04-29T23:19:29.177Z,85.75
2023-04-29T23:24:32.062Z,85.28
2023-04-29T23:29:35.245Z,84.54
2023-04-29T23:34:38.216Z,85.14
2023-04-29T23:39:41.094Z,86.56
2023-04-29T23:44:44.331Z,86.42
2023-04-29T23:49:47.350Z,86.11
2023-04-29T23:54:50.411Z,85.74
2023-04-29T23:59:53.430Z,84.86
